createdAt,value
2022-10-19T00:01:24.167Z,81.07
2022-10-19T00:03:55.212Z,83.39
2022-10-19T00:06:27.953Z,82.40
2022-10-19T00:08:56.781Z,81.05
2022-10-19T00:11:24.158Z,80.40
2022-10-19T00:13:52.317Z,80.31
2022-10-19T00:16:19.993Z,80.57
2022-10-19T00:18:46.818Z,80.29
2022-10-19T00:21:16.640Z,79.68
2022-10-19T00:23:44.817Z,79.22
2022-10-19T00:26:12.376Z,78.33
2022-10-19T00:28:39.484Z,77.27
2022-10-19T00:31:12.304Z,77.19
2022-10-19T00:33:41.159Z,76.55
2022-10-19T00:36:14.807Z,75.93
2022-10-19T00:38:41.549Z,76.14
2022-10-19T00:41:08.599Z,76.39
2022-10-19T00:43:57.246Z,76.13
2022-10-19T00:46:26.345Z,75.62
2022-10-19T00:49:00.285Z,76.87
2022-10-19T00:51:29.820Z,75.85
2022-10-19T00:53:56.811Z,74.47
2022-10-19T00:56:23.970Z,75.33
2022-10-19T00:58:50.895Z,75.43
2022-10-19T01:01:21.346Z,76.92
2022-10-19T01:03:48.292Z,76.62
2022-10-19T01:06:17.427Z,76.90
2022-10-19T01:08:44.649Z,78.36
2022-10-19T01:11:45.383Z,79.57
2022-10-19T01:14:19.183Z,79.60
2022-10-19T01:17:11.730Z,81.22
2022-10-19T01:20:09.298Z,81.98
2022-10-19T01:22:45.067Z,81.00
2022-10-19T01:25:30.031Z,79.69
2022-10-19T01:28:15.562Z,81.26
2022-10-19T01:31:01.496Z,79.95
2022-10-19T01:33:42.985Z,80.98
2022-10-19T01:36:16.280Z,81.04
2022-10-19T01:38:56.670Z,80.04
2022-10-19T01:41:54.511Z,80.17
2022-10-19T01:45:03.114Z,81.66
2022-10-19T01:47:46.672Z,83.44
2022-10-19T01:50:29.295Z,82.74
2022-10-19T01:52:58.085Z,81.79
2022-10-19T01:55:27.293Z,82.69
2022-10-19T01:57:59.345Z,82.81
2022-10-19T02:00:28.667Z,80.78
2022-10-19T02:02:55.808Z,80.66
2022-10-19T02:05:28.182Z,82.83
2022-10-19T02:07:59.656Z,83.66
2022-10-19T02:10:28.741Z,83.55
2022-10-19T02:12:57.104Z,81.59
2022-10-19T02:15:27.837Z,81.08
2022-10-19T02:17:59.317Z,81.00
2022-10-19T02:20:27.935Z,81.66
2022-10-19T02:22:54.933Z,81.74
2022-10-19T02:25:23.628Z,84.02
2022-10-19T02:27:52.818Z,84.20
2022-10-19T02:30:21.916Z,82.72
2022-10-19T02:32:50.289Z,82.04
2022-10-19T02:35:17.585Z,82.38
2022-10-19T02:37:44.909Z,80.87
2022-10-19T02:40:12.474Z,81.03
2022-10-19T02:42:53.752Z,80.26
2022-10-19T02:45:26.264Z,80.16
2022-10-19T02:48:07.754Z,81.08
2022-10-19T02:50:35.174Z,81.76
2022-10-19T02:53:01.910Z,82.45
2022-10-19T02:55:30.333Z,82.24
2022-10-19T02:57:57.450Z,80.40
2022-10-19T03:00:24.289Z,80.83
2022-10-19T03:02:51.655Z,80.00
2022-10-19T03:05:18.323Z,78.63
2022-10-19T03:07:45.127Z,77.75
2022-10-19T03:10:12.080Z,79.14
2022-10-19T03:12:38.926Z,79.47
2022-10-19T03:15:06.692Z,77.02
2022-10-19T03:17:33.708Z,77.90
2022-10-19T03:20:00.938Z,75.41
2022-10-19T03:22:27.472Z,74.90
2022-10-19T03:24:54.164Z,75.03
2022-10-19T03:27:21.010Z,75.45
2022-10-19T03:29:47.654Z,76.46
2022-10-19T03:32:14.399Z,78.92
2022-10-19T03:34:41.133Z,76.82
2022-10-19T03:37:08.386Z,76.06
2022-10-19T03:39:35.169Z,75.63
2022-10-19T03:42:01.973Z,74.58
2022-10-19T03:44:28.767Z,75.90
2022-10-19T03:46:55.465Z,73.45
2022-10-19T03:49:22.310Z,73.27
2022-10-19T03:51:49.062Z,72.64
2022-10-19T03:54:17.123Z,73.81
2022-10-19T03:56:44.178Z,74.46
2022-10-19T03:59:14.033Z,72.26
2022-10-19T04:01:45.033Z,71.76
2022-10-19T04:04:18.153Z,73.17
2022-10-19T04:06:47.452Z,73.95
2022-10-19T04:09:17.474Z,73.81
2022-10-19T04:11:44.723Z,72.86
2022-10-19T04:14:26.685Z,73.22
2022-10-19T04:17:01.554Z,72.87
2022-10-19T04:19:28.272Z,73.14
2022-10-19T04:21:55.221Z,72.66
2022-10-19T04:24:22.692Z,72.71
2022-10-19T04:26:52.496Z,73.37
2022-10-19T04:29:22.786Z,74.23
2022-10-19T04:31:52.332Z,74.82
2022-10-19T04:34:19.811Z,75.01
2022-10-19T04:36:46.529Z,76.20
2022-10-19T04:39:13.575Z,76.17
2022-10-19T04:41:40.210Z,76.01
2022-10-19T04:44:06.951Z,76.00
2022-10-19T04:46:34.410Z,76.54
2022-10-19T04:49:03.727Z,76.73
2022-10-19T04:51:30.738Z,78.11
2022-10-19T04:53:59.548Z,78.13
2022-10-19T04:56:27.441Z,78.15
2022-10-19T04:58:59.487Z,77.16
2022-10-19T05:01:27.766Z,76.77
2022-10-19T05:04:00.366Z,76.06
2022-10-19T05:06:56.409Z,75.87
2022-10-19T05:10:27.944Z,73.92
2022-10-19T05:12:55.444Z,73.44
2022-10-19T05:15:22.503Z,72.02
2022-10-19T05:17:49.198Z,72.03
2022-10-19T05:20:16.272Z,73.97
2022-10-19T05:22:42.914Z,74.41
2022-10-19T05:25:09.934Z,74.97
2022-10-19T05:27:37.001Z,75.44
2022-10-19T05:30:06.295Z,74.46
2022-10-19T05:32:33.131Z,73.55
2022-10-19T05:34:59.921Z,73.39
2022-10-19T05:37:26.822Z,73.90
2022-10-19T05:39:56.840Z,73.46
2022-10-19T05:42:23.574Z,73.72
2022-10-19T05:44:50.215Z,74.12
2022-10-19T05:47:16.867Z,74.51
2022-10-19T05:49:47.118Z,74.00
2022-10-19T05:52:17.305Z,73.19
2022-10-19T05:54:44.051Z,73.61
2022-10-19T05:59:45.576Z,74.02
2022-10-19T06:02:15.399Z,74.84
2022-10-19T06:04:42.237Z,72.41
2022-10-19T06:07:08.916Z,70.22
2022-10-19T06:09:36.584Z,68.86
2022-10-19T06:12:03.307Z,67.85
2022-10-19T06:14:30.537Z,66.56
2022-10-19T06:16:57.496Z,65.04
2022-10-19T06:19:24.227Z,65.63
2022-10-19T06:21:51.084Z,65.20
2022-10-19T06:24:18.122Z,64.73
2022-10-19T06:26:44.861Z,64.69
2022-10-19T06:29:12.325Z,65.38
2022-10-19T06:31:39.014Z,66.38
2022-10-19T06:34:06.281Z,67.47
2022-10-19T06:36:34.086Z,66.81
2022-10-19T06:42:09.902Z,65.84
2022-10-19T06:44:36.671Z,66.10
2022-10-19T06:47:03.448Z,65.06
2022-10-19T06:49:30.337Z,65.30
2022-10-19T06:51:57.077Z,65.14
2022-10-19T06:54:25.002Z,64.90
2022-10-19T06:56:51.680Z,64.12
2022-10-19T06:59:18.918Z,63.95
2022-10-19T07:01:45.617Z,64.05
2022-10-19T07:04:13.349Z,63.52
2022-10-19T07:06:40.061Z,62.44
2022-10-19T07:09:06.749Z,62.51
2022-10-19T07:11:33.574Z,62.60
2022-10-19T07:14:00.133Z,62.43
2022-10-19T07:16:26.855Z,62.23
2022-10-19T07:18:53.723Z,62.17
2022-10-19T07:21:22.797Z,61.04
2022-10-19T07:23:49.496Z,61.18
2022-10-19T07:26:25.617Z,59.01
2022-10-19T07:28:55.832Z,58.17
2022-10-19T07:31:24.594Z,58.61
2022-10-19T07:33:57.069Z,59.17
2022-10-19T07:36:25.302Z,58.33
2022-10-19T07:38:52.776Z,59.11
2022-10-19T07:41:21.521Z,59.32
2022-10-19T07:43:50.110Z,59.98
2022-10-19T07:46:20.147Z,58.36
2022-10-19T07:48:47.207Z,58.59
2022-10-19T07:51:16.490Z,59.66
2022-10-19T07:53:43.804Z,59.98
2022-10-19T07:56:16.203Z,58.86
2022-10-19T07:58:43.617Z,59.64
2022-10-19T08:01:13.896Z,58.69
2022-10-19T08:06:28.991Z,59.12
2022-10-19T08:08:56.416Z,58.52
2022-10-19T08:11:29.221Z,58.15
2022-10-19T08:13:58.686Z,57.78
2022-10-19T08:16:32.334Z,58.57
2022-10-19T08:19:02.607Z,58.38
2022-10-19T08:21:30.557Z,58.63
2022-10-19T08:23:58.191Z,58.96
2022-10-19T08:26:29.046Z,58.77
2022-10-19T08:29:00.557Z,58.73
2022-10-19T08:31:28.277Z,58.32
2022-10-19T08:33:55.607Z,58.43
2022-10-19T08:36:22.690Z,58.81
2022-10-19T08:38:50.318Z,58.58
2022-10-19T08:41:35.565Z,59.29
2022-10-19T08:44:26.496Z,59.58
2022-10-19T08:47:12.436Z,59.92
2022-10-19T08:49:41.271Z,60.55
2022-10-19T08:52:17.865Z,60.78
2022-10-19T08:54:57.058Z,60.50
2022-10-19T08:57:33.184Z,60.26
2022-10-19T09:00:19.256Z,60.80
2022-10-19T09:02:55.657Z,60.29
2022-10-19T09:05:28.417Z,59.64
2022-10-19T09:07:55.144Z,58.42
2022-10-19T09:10:27.624Z,57.28
2022-10-19T09:13:20.686Z,57.20
2022-10-19T09:15:50.307Z,57.00
2022-10-19T09:18:32.088Z,57.44
2022-10-19T09:21:31.021Z,58.29
2022-10-19T09:24:15.611Z,57.10
2022-10-19T09:26:54.079Z,56.80
2022-10-19T09:29:39.650Z,57.71
2022-10-19T09:32:21.865Z,57.63
2022-10-19T09:34:56.317Z,57.60
2022-10-19T09:37:26.635Z,56.53
2022-10-19T09:39:56.013Z,56.63
2022-10-19T09:42:29.746Z,55.10
2022-10-19T09:45:00.553Z,55.07
2022-10-19T09:47:36.751Z,55.54
2022-10-19T09:50:23.527Z,55.53
2022-10-19T09:52:53.058Z,55.89
2022-10-19T09:55:29.343Z,55.70
2022-10-19T09:58:02.902Z,55.65
2022-10-19T10:00:37.474Z,55.87
2022-10-19T10:03:05.810Z,55.78
2022-10-19T10:05:40.278Z,55.47
2022-10-19T10:08:36.293Z,55.73
2022-10-19T10:11:10.331Z,55.88
2022-10-19T10:13:39.036Z,55.56
2022-10-19T10:16:08.881Z,55.66
2022-10-19T10:18:38.889Z,55.66
2022-10-19T10:21:25.435Z,55.32
2022-10-19T10:24:20.900Z,54.91
2022-10-19T10:26:50.682Z,55.54
2022-10-19T10:29:21.474Z,54.72
2022-10-19T10:31:53.291Z,54.65
2022-10-19T10:35:01.833Z,55.06
2022-10-19T10:37:39.923Z,54.56
2022-10-19T10:40:23.382Z,55.13
2022-10-19T10:42:52.185Z,54.98
2022-10-19T10:45:40.952Z,55.62
2022-10-19T10:48:28.388Z,55.33
2022-10-19T10:50:57.001Z,55.66
2022-10-19T10:53:44.415Z,55.06
2022-10-19T10:56:22.801Z,55.17
2022-10-19T10:58:54.802Z,55.82
2022-10-19T11:01:23.549Z,55.30
2022-10-19T11:03:56.947Z,55.05
2022-10-19T11:06:26.055Z,55.72
2022-10-19T11:13:55.092Z,55.65
2022-10-19T11:16:38.014Z,55.45
2022-10-19T11:19:17.770Z,55.49
2022-10-19T11:22:09.485Z,55.36
2022-10-19T11:25:09.606Z,54.14
2022-10-19T11:28:06.412Z,53.50
2022-10-19T11:30:42.811Z,53.64
2022-10-19T11:33:44.086Z,52.66
2022-10-19T11:36:45.442Z,52.54
2022-10-19T11:39:44.024Z,52.56
2022-10-19T11:42:54.492Z,52.92
2022-10-19T11:45:52.540Z,53.37
2022-10-19T11:48:41.713Z,53.07
2022-10-19T11:51:29.196Z,52.34
2022-10-19T11:54:12.459Z,52.37
2022-10-19T11:57:12.475Z,52.42
2022-10-19T12:00:15.038Z,52.81
2022-10-19T12:02:53.104Z,53.41
2022-10-19T12:05:38.791Z,53.15
2022-10-19T12:08:37.754Z,52.84
2022-10-19T12:11:10.266Z,52.77
2022-10-19T12:14:02.418Z,53.28
2022-10-19T12:16:37.547Z,52.73
2022-10-19T12:19:06.355Z,52.89
2022-10-19T12:26:22.888Z,53.61
2022-10-19T12:28:55.151Z,54.82
2022-10-19T12:36:27.346Z,56.54
2022-10-19T12:39:12.228Z,56.79
2022-10-19T12:41:54.015Z,57.48
2022-10-19T12:44:39.906Z,58.15
2022-10-19T12:47:15.353Z,58.65
2022-10-19T12:49:55.037Z,58.82
2022-10-19T12:56:50.495Z,58.93
2022-10-19T12:59:32.753Z,58.61
2022-10-19T13:02:04.101Z,58.88
2022-10-19T13:04:35.807Z,59.53
2022-10-19T13:07:07.950Z,60.23
2022-10-19T13:09:47.776Z,60.11
2022-10-19T13:12:17.804Z,60.16
2022-10-19T13:14:53.142Z,60.15
2022-10-19T13:17:45.813Z,60.49
2022-10-19T13:20:15.913Z,60.87
2022-10-19T13:22:45.836Z,61.04
2022-10-19T13:25:15.651Z,61.41
2022-10-19T13:27:46.286Z,62.13
2022-10-19T13:30:35.547Z,62.75
2022-10-19T13:33:27.480Z,63.04
2022-10-19T13:36:00.155Z,63.81
2022-10-19T13:38:55.345Z,64.73
2022-10-19T13:41:26.866Z,66.52
2022-10-19T13:44:14.762Z,68.47
2022-10-19T13:46:54.000Z,69.92
2022-10-19T13:49:33.049Z,71.16
2022-10-19T13:52:17.522Z,71.78
2022-10-19T13:55:12.189Z,72.31
2022-10-19T13:57:56.098Z,72.87
2022-10-19T14:00:33.019Z,72.48
2022-10-19T14:03:18.700Z,73.27
2022-10-19T14:06:12.009Z,72.97
2022-10-19T14:09:11.968Z,73.28
2022-10-19T14:11:42.112Z,73.09
2022-10-19T14:14:08.653Z,72.74
2022-10-19T14:17:01.454Z,72.85
2022-10-19T14:19:47.364Z,72.82
2022-10-19T14:22:35.721Z,72.56
2022-10-19T14:25:17.126Z,72.76
2022-10-19T14:27:46.220Z,72.13
2022-10-19T14:30:34.568Z,72.00
2022-10-19T14:33:07.462Z,71.63
2022-10-19T14:35:37.312Z,71.17
2022-10-19T14:38:14.602Z,70.99
2022-10-19T14:40:42.120Z,70.60
2022-10-19T14:43:25.256Z,70.34
2022-10-19T14:46:07.350Z,70.26
2022-10-19T14:48:49.364Z,70.56
2022-10-19T14:51:28.900Z,70.94
2022-10-19T14:54:07.103Z,70.79
2022-10-19T14:56:50.032Z,70.50
2022-10-19T14:59:36.504Z,70.44
2022-10-19T15:02:38.350Z,70.56
2022-10-19T15:05:13.740Z,70.45
2022-10-19T15:07:42.836Z,70.72
2022-10-19T15:10:30.237Z,70.93
2022-10-19T15:13:05.579Z,70.86
2022-10-19T15:15:34.684Z,71.01
2022-10-19T15:18:01.470Z,71.07
2022-10-19T15:20:43.852Z,71.31
2022-10-19T15:23:50.125Z,71.75
2022-10-19T15:26:26.223Z,72.35
2022-10-19T15:28:55.246Z,72.55
2022-10-19T15:31:27.871Z,73.09
2022-10-19T15:34:00.698Z,73.76
2022-10-19T15:36:30.134Z,74.09
2022-10-19T15:39:06.054Z,74.35
2022-10-19T15:41:43.830Z,74.71
2022-10-19T15:44:33.845Z,75.17
2022-10-19T15:47:21.220Z,75.13
2022-10-19T15:49:52.697Z,75.27
2022-10-19T15:52:21.805Z,75.70
2022-10-19T15:54:54.986Z,75.75
2022-10-19T15:57:21.721Z,75.61
2022-10-19T15:59:48.359Z,75.64
2022-10-19T16:02:15.254Z,75.87
2022-10-19T16:04:42.146Z,76.21
2022-10-19T16:07:16.168Z,75.82
2022-10-19T16:09:42.814Z,75.55
2022-10-19T16:12:10.767Z,75.89
2022-10-19T16:14:37.467Z,75.58
2022-10-19T16:17:04.865Z,76.21
2022-10-19T16:19:31.922Z,75.94
2022-10-19T16:21:58.715Z,75.66
2022-10-19T16:24:25.502Z,75.77
2022-10-19T16:26:52.370Z,75.79
2022-10-19T16:29:19.092Z,75.33
2022-10-19T16:31:45.867Z,75.47
2022-10-19T16:34:12.575Z,75.62
2022-10-19T16:36:39.367Z,76.25
2022-10-19T16:39:05.989Z,76.44
2022-10-19T16:41:32.841Z,76.37
2022-10-19T16:44:00.077Z,76.39
2022-10-19T16:46:26.992Z,76.57
2022-10-19T16:48:55.072Z,76.77
2022-10-19T16:51:28.163Z,76.54
2022-10-19T16:53:57.263Z,75.93
2022-10-19T16:56:26.843Z,75.90
2022-10-19T16:58:59.885Z,76.37
2022-10-19T17:01:27.682Z,76.65
2022-10-19T17:03:55.392Z,76.48
2022-10-19T17:06:23.632Z,77.00
2022-10-19T17:11:39.069Z,76.48
2022-10-19T17:14:10.395Z,76.44
2022-10-19T17:16:38.021Z,76.30
2022-10-19T17:19:06.898Z,76.34
2022-10-19T17:21:37.712Z,76.37
2022-10-19T17:24:07.539Z,76.84
2022-10-19T17:26:37.237Z,76.92
2022-10-19T17:29:05.707Z,77.20
2022-10-19T17:31:32.790Z,76.99
2022-10-19T17:34:02.486Z,76.94
2022-10-19T17:36:31.940Z,76.94
2022-10-19T17:39:01.800Z,76.78
2022-10-19T17:41:29.568Z,76.50
2022-10-19T17:43:56.519Z,76.51
2022-10-19T17:46:29.607Z,76.86
2022-10-19T17:48:57.425Z,77.03
2022-10-19T17:51:29.813Z,77.08
2022-10-19T17:53:59.663Z,77.23
2022-10-19T17:56:27.531Z,76.75
2022-10-19T17:58:56.334Z,75.96
2022-10-19T18:01:24.396Z,76.11
2022-10-19T18:03:51.083Z,75.80
2022-10-19T18:06:31.112Z,75.59
2022-10-19T18:09:00.516Z,76.28
2022-10-19T18:11:35.458Z,76.09
2022-10-19T18:14:03.323Z,75.92
2022-10-19T18:16:33.007Z,74.95
2022-10-19T18:19:01.721Z,72.76
2022-10-19T18:21:31.837Z,72.84
2022-10-19T18:24:00.517Z,72.80
2022-10-19T18:26:31.473Z,72.43
2022-10-19T18:28:59.620Z,71.75
2022-10-19T18:31:30.013Z,71.45
2022-10-19T18:34:00.479Z,70.54
2022-10-19T18:36:27.637Z,70.42
2022-10-19T18:38:57.444Z,70.96
2022-10-19T18:41:25.212Z,70.44
2022-10-19T18:43:57.809Z,70.27
2022-10-19T18:46:26.275Z,70.64
2022-10-19T18:48:53.452Z,70.66
2022-10-19T18:51:22.448Z,70.57
2022-10-19T18:53:49.879Z,69.90
2022-10-19T18:56:19.307Z,69.81
2022-10-19T18:58:46.948Z,70.19
2022-10-19T19:01:13.509Z,68.51
2022-10-19T19:03:42.581Z,66.98
2022-10-19T19:06:13.013Z,66.69
2022-10-19T19:08:40.726Z,66.53
2022-10-19T19:11:24.549Z,66.88
2022-10-19T19:13:57.306Z,66.84
2022-10-19T19:16:24.351Z,66.15
2022-10-19T19:18:51.317Z,66.50
2022-10-19T19:21:23.979Z,66.45
2022-10-19T19:23:52.256Z,66.66
2022-10-19T19:26:20.454Z,66.58
2022-10-19T19:28:51.750Z,66.10
2022-10-19T19:31:19.753Z,65.16
2022-10-19T19:33:47.217Z,65.59
2022-10-19T19:36:16.525Z,65.59
2022-10-19T19:38:43.494Z,65.94
2022-10-19T19:41:14.838Z,65.90
2022-10-19T19:43:43.396Z,66.18
2022-10-19T19:46:17.112Z,65.78
2022-10-19T19:48:45.920Z,65.65
2022-10-19T19:51:20.519Z,66.07
2022-10-19T19:53:48.081Z,65.72
2022-10-19T19:56:16.369Z,65.41
2022-10-19T19:58:44.652Z,65.23
2022-10-19T20:01:14.331Z,65.78
2022-10-19T20:03:42.218Z,65.09
2022-10-19T20:06:10.289Z,64.83
2022-10-19T20:08:38.309Z,65.05
2022-10-19T20:11:08.663Z,63.70
2022-10-19T20:13:36.153Z,62.96
2022-10-19T20:16:12.209Z,63.11
2022-10-19T20:18:40.284Z,62.48
2022-10-19T20:21:07.229Z,62.28
2022-10-19T20:23:34.000Z,61.98
2022-10-19T20:26:00.974Z,62.14
2022-10-19T20:28:28.405Z,61.98
2022-10-19T20:31:00.507Z,61.99
2022-10-19T20:33:30.154Z,61.90
2022-10-19T20:35:56.844Z,62.01
2022-10-19T20:38:24.767Z,61.51
2022-10-19T20:40:51.816Z,61.65
2022-10-19T20:43:18.571Z,61.26
2022-10-19T20:45:45.281Z,61.65
2022-10-19T20:48:11.958Z,61.57
2022-10-19T20:50:40.118Z,62.35
2022-10-19T20:53:08.258Z,62.36
2022-10-19T20:55:34.930Z,62.57
2022-10-19T20:58:01.877Z,62.07
2022-10-19T21:00:28.734Z,62.08
2022-10-19T21:02:55.464Z,62.39
2022-10-19T21:05:22.332Z,62.86
2022-10-19T21:07:49.052Z,63.78
2022-10-19T21:10:15.793Z,63.20
2022-10-19T21:12:42.433Z,62.94
2022-10-19T21:15:09.895Z,63.14
2022-10-19T21:17:36.545Z,64.45
2022-10-19T21:20:03.376Z,63.42
2022-10-19T21:22:32.295Z,63.43
2022-10-19T21:25:01.235Z,62.90
2022-10-19T21:27:28.062Z,62.35
2022-10-19T21:29:54.860Z,62.45
2022-10-19T21:32:22.313Z,62.90
2022-10-19T21:34:49.111Z,63.08
2022-10-19T21:37:15.692Z,63.72
2022-10-19T21:39:42.432Z,63.75
2022-10-19T21:42:09.089Z,63.91
2022-10-19T21:44:35.813Z,64.14
2022-10-19T21:47:02.481Z,64.98
2022-10-19T21:49:29.077Z,64.66
2022-10-19T21:51:55.939Z,64.50
2022-10-19T21:54:24.422Z,64.86
2022-10-19T21:56:51.311Z,64.87
2022-10-19T21:59:18.621Z,65.60
2022-10-19T22:01:45.399Z,66.11
2022-10-19T22:04:17.274Z,66.32
2022-10-19T22:06:44.788Z,65.99
2022-10-19T22:09:15.318Z,65.89
2022-10-19T22:11:42.577Z,66.17
2022-10-19T22:14:12.132Z,66.48
2022-10-19T22:16:39.947Z,66.78
2022-10-19T22:19:08.024Z,66.93
2022-10-19T22:21:35.197Z,66.79
2022-10-19T22:24:06.399Z,66.87
2022-10-19T22:26:36.862Z,66.88
2022-10-19T22:29:05.128Z,67.05
2022-10-19T22:31:33.617Z,67.55
2022-10-19T22:34:06.239Z,67.45
2022-10-19T22:36:33.300Z,67.69
2022-10-19T22:38:59.825Z,67.85
2022-10-19T22:41:26.416Z,68.28
2022-10-19T22:43:52.971Z,68.47
2022-10-19T22:46:19.593Z,69.09
2022-10-19T22:48:46.193Z,69.22
2022-10-19T22:51:12.876Z,69.43
2022-10-19T22:53:39.550Z,69.74
2022-10-19T22:56:06.814Z,69.86
2022-10-19T22:58:33.606Z,69.99
2022-10-19T23:01:01.213Z,69.93
2022-10-19T23:03:27.879Z,69.88
2022-10-19T23:05:54.414Z,70.07
2022-10-19T23:08:21.194Z,70.10
2022-10-19T23:10:47.710Z,70.36
2022-10-19T23:13:14.779Z,70.87
2022-10-19T23:15:43.918Z,74.09
2022-10-19T23:18:11.716Z,70.88
2022-10-19T23:20:38.903Z,70.54
2022-10-19T23:23:05.465Z,71.12
2022-10-19T23:28:03.759Z,70.95
2022-10-19T23:30:30.310Z,70.78
2022-10-19T23:32:57.011Z,70.77
2022-10-19T23:35:23.629Z,71.21
2022-10-19T23:37:50.398Z,72.41
2022-10-19T23:40:17.196Z,73.19
2022-10-19T23:42:43.982Z,71.68
2022-10-19T23:45:12.673Z,71.36
2022-10-19T23:47:39.346Z,72.60
2022-10-19T23:50:06.594Z,72.09
2022-10-19T23:52:33.252Z,73.16
2022-10-19T23:54:59.848Z,73.33
2022-10-19T23:57:26.382Z,74.00
2022-10-19T23:59:52.919Z,77.12
